sensor_id;sensor_type;location;lat;lon;timestamp;pressure;altitude;pressure_sealevel;temperature;humidity
163;BME280;3946;48.958;8.284;2023-07-31T00:00:12;100461.97;;;16.90;84.40
163;BME280;3946;48.958;8.284;2023-07-31T00:02:59;100462.53;;;16.84;85.03
163;BME280;3946;48.958;8.284;2023-07-31T00:05:44;100464.47;;;16.92;84.67
163;BME280;3946;48.958;8.284;2023-07-31T00:08:30;100463.75;;;16.80;85.27
163;BME280;3946;48.958;8.284;2023-07-31T00:11:15;100467.31;;;16.69;85.87
163;BME280;3946;48.958;8.284;2023-07-31T00:14:00;100460.78;;;16.54;87.92
163;BME280;3946;48.958;8.284;2023-07-31T00:16:46;100455.38;;;16.46;88.61
163;BME280;3946;48.958;8.284;2023-07-31T00:19:32;100456.09;;;16.58;88.18
163;BME280;3946;48.958;8.284;2023-07-31T00:22:17;100444.91;;;16.46;90.02
163;BME280;3946;48.958;8.284;2023-07-31T00:25:03;100439.41;;;16.39;90.77
163;BME280;3946;48.958;8.284;2023-07-31T00:27:50;100445.03;;;16.44;90.68
163;BME280;3946;48.958;8.284;2023-07-31T00:30:35;100444.06;;;16.36;91.07
163;BME280;3946;48.958;8.284;2023-07-31T00:33:20;100447.75;;;16.33;91.35
163;BME280;3946;48.958;8.284;2023-07-31T00:36:07;100447.31;;;16.28;91.52
163;BME280;3946;48.958;8.284;2023-07-31T00:38:52;100442.41;;;16.35;90.65
163;BME280;3946;48.958;8.284;2023-07-31T00:41:37;100442.00;;;16.39;90.44
163;BME280;3946;48.958;8.284;2023-07-31T00:44:23;100441.69;;;16.33;91.04
163;BME280;3946;48.958;8.284;2023-07-31T00:47:08;100443.06;;;16.27;91.45
163;BME280;3946;48.958;8.284;2023-07-31T00:49:53;100434.09;;;16.20;91.51
163;BME280;3946;48.958;8.284;2023-07-31T00:52:41;100439.13;;;16.12;92.93
163;BME280;3946;48.958;8.284;2023-07-31T00:55:26;100425.94;;;16.14;92.18
163;BME280;3946;48.958;8.284;2023-07-31T00:58:11;100431.16;;;16.14;91.72
163;BME280;3946;48.958;8.284;2023-07-31T01:00:57;100424.38;;;16.01;93.18
163;BME280;3946;48.958;8.284;2023-07-31T01:03:42;100431.53;;;15.99;93.05
163;BME280;3946;48.958;8.284;2023-07-31T01:06:33;100421.22;;;16.07;92.55
163;BME280;3946;48.958;8.284;2023-07-31T01:09:29;100421.38;;;16.06;92.44
163;BME280;3946;48.958;8.284;2023-07-31T01:12:19;100414.31;;;15.97;92.72
163;BME280;3946;48.958;8.284;2023-07-31T01:15:06;100419.28;;;16.00;92.67
163;BME280;3946;48.958;8.284;2023-07-31T01:17:54;100414.84;;;15.91;92.77
163;BME280;3946;48.958;8.284;2023-07-31T01:20:41;100420.94;;;16.01;92.96
163;BME280;3946;48.958;8.284;2023-07-31T01:23:51;100414.44;;;15.95;92.14
163;BME280;3946;48.958;8.284;2023-07-31T01:26:45;100421.75;;;16.01;91.83
163;BME280;3946;48.958;8.284;2023-07-31T01:29:37;100419.97;;;16.02;91.41
163;BME280;3946;48.958;8.284;2023-07-31T01:32:24;100421.78;;;15.81;92.75
163;BME280;3946;48.958;8.284;2023-07-31T01:35:10;100415.34;;;15.85;91.90
163;BME280;3946;48.958;8.284;2023-07-31T01:37:55;100418.47;;;15.79;93.25
163;BME280;3946;48.958;8.284;2023-07-31T01:40:42;100416.91;;;15.66;93.43
163;BME280;3946;48.958;8.284;2023-07-31T01:43:28;100405.94;;;15.72;92.59
163;BME280;3946;48.958;8.284;2023-07-31T01:46:13;100407.66;;;15.83;91.98
163;BME280;3946;48.958;8.284;2023-07-31T01:48:59;100397.78;;;15.87;90.66
163;BME280;3946;48.958;8.284;2023-07-31T01:51:44;100400.06;;;15.80;92.44
163;BME280;3946;48.958;8.284;2023-07-31T01:54:29;100400.50;;;15.85;90.97
163;BME280;3946;48.958;8.284;2023-07-31T01:57:14;100391.41;;;15.80;91.32
163;BME280;3946;48.958;8.284;2023-07-31T02:00:01;100382.44;;;15.72;91.95
163;BME280;3946;48.958;8.284;2023-07-31T02:02:55;100376.63;;;15.69;92.38
163;BME280;3946;48.958;8.284;2023-07-31T02:05:44;100368.47;;;15.62;92.63
163;BME280;3946;48.958;8.284;2023-07-31T02:08:30;100376.44;;;15.61;93.02
163;BME280;3946;48.958;8.284;2023-07-31T02:11:15;100371.72;;;15.55;93.20
163;BME280;3946;48.958;8.284;2023-07-31T02:14:01;100379.38;;;15.67;91.92
163;BME280;3946;48.958;8.284;2023-07-31T02:16:47;100376.38;;;15.72;91.78
163;BME280;3946;48.958;8.284;2023-07-31T02:19:33;100369.63;;;15.69;91.35
163;BME280;3946;48.958;8.284;2023-07-31T02:22:18;100374.19;;;15.77;90.67
163;BME280;3946;48.958;8.284;2023-07-31T02:25:04;100366.06;;;15.70;91.17
163;BME280;3946;48.958;8.284;2023-07-31T02:27:49;100359.19;;;15.69;90.71
163;BME280;3946;48.958;8.284;2023-07-31T02:30:35;100354.25;;;15.76;90.81
163;BME280;3946;48.958;8.284;2023-07-31T02:33:22;100350.13;;;15.73;90.13
163;BME280;3946;48.958;8.284;2023-07-31T02:36:07;100351.22;;;15.71;90.34
163;BME280;3946;48.958;8.284;2023-07-31T02:38:52;100360.41;;;15.75;90.55
163;BME280;3946;48.958;8.284;2023-07-31T02:41:38;100353.28;;;15.77;89.07
163;BME280;3946;48.958;8.284;2023-07-31T02:44:23;100351.81;;;15.84;88.99
163;BME280;3946;48.958;8.284;2023-07-31T02:47:09;100349.47;;;15.81;89.53
163;BME280;3946;48.958;8.284;2023-07-31T02:49:55;100358.69;;;15.85;88.73
163;BME280;3946;48.958;8.284;2023-07-31T02:52:41;100353.63;;;15.93;87.59
163;BME280;3946;48.958;8.284;2023-07-31T02:55:26;100347.88;;;15.99;88.17
163;BME280;3946;48.958;8.284;2023-07-31T02:58:12;100352.84;;;16.02;87.58
163;BME280;3946;48.958;8.284;2023-07-31T03:00:58;100352.28;;;15.99;87.97
163;BME280;3946;48.958;8.284;2023-07-31T03:03:43;100349.69;;;16.08;87.45
163;BME280;3946;48.958;8.284;2023-07-31T03:06:31;100353.97;;;16.09;87.23
163;BME280;3946;48.958;8.284;2023-07-31T03:09:16;100358.41;;;16.19;86.15
163;BME280;3946;48.958;8.284;2023-07-31T03:12:01;100359.25;;;16.29;85.15
163;BME280;3946;48.958;8.284;2023-07-31T03:14:47;100358.03;;;16.33;84.00
163;BME280;3946;48.958;8.284;2023-07-31T03:17:32;100348.53;;;16.32;85.12
163;BME280;3946;48.958;8.284;2023-07-31T03:20:18;100347.25;;;16.26;85.59
163;BME280;3946;48.958;8.284;2023-07-31T03:23:04;100341.63;;;16.31;85.58
163;BME280;3946;48.958;8.284;2023-07-31T03:25:56;100341.22;;;16.26;85.36
163;BME280;3946;48.958;8.284;2023-07-31T03:28:45;100344.13;;;16.23;85.45
163;BME280;3946;48.958;8.284;2023-07-31T03:31:31;100348.09;;;16.27;85.29
163;BME280;3946;48.958;8.284;2023-07-31T03:34:17;100335.16;;;16.25;84.82
163;BME280;3946;48.958;8.284;2023-07-31T03:37:02;100344.69;;;16.36;84.76
163;BME280;3946;48.958;8.284;2023-07-31T03:39:50;100348.66;;;16.30;84.55
163;BME280;3946;48.958;8.284;2023-07-31T03:42:35;100333.53;;;16.43;84.12
163;BME280;3946;48.958;8.284;2023-07-31T03:45:20;100346.47;;;16.35;84.38
163;BME280;3946;48.958;8.284;2023-07-31T03:48:06;100345.66;;;16.35;84.62
163;BME280;3946;48.958;8.284;2023-07-31T03:50:52;100342.34;;;16.42;84.41
163;BME280;3946;48.958;8.284;2023-07-31T03:53:38;100347.31;;;16.36;84.33
163;BME280;3946;48.958;8.284;2023-07-31T03:56:24;100354.31;;;16.35;84.83
163;BME280;3946;48.958;8.284;2023-07-31T03:59:10;100349.22;;;16.34;84.62
163;BME280;3946;48.958;8.284;2023-07-31T04:01:55;100346.03;;;16.40;84.91
163;BME280;3946;48.958;8.284;2023-07-31T04:04:40;100348.97;;;16.37;85.47
163;BME280;3946;48.958;8.284;2023-07-31T04:07:25;100346.34;;;16.37;84.87
163;BME280;3946;48.958;8.284;2023-07-31T04:10:11;100352.53;;;16.36;85.41
163;BME280;3946;48.958;8.284;2023-07-31T04:12:57;100346.88;;;16.40;84.92
163;BME280;3946;48.958;8.284;2023-07-31T04:15:43;100339.47;;;16.36;85.05
163;BME280;3946;48.958;8.284;2023-07-31T04:18:32;100342.34;;;16.42;84.85
163;BME280;3946;48.958;8.284;2023-07-31T04:21:17;100340.84;;;16.50;84.64
163;BME280;3946;48.958;8.284;2023-07-31T04:24:03;100338.19;;;16.40;85.10
163;BME280;3946;48.958;8.284;2023-07-31T04:26:48;100348.25;;;16.35;85.29
163;BME280;3946;48.958;8.284;2023-07-31T04:29:35;100340.16;;;16.48;85.05
163;BME280;3946;48.958;8.284;2023-07-31T04:32:20;100340.97;;;16.48;84.97
163;BME280;3946;48.958;8.284;2023-07-31T04:35:06;100330.09;;;16.43;85.08
163;BME280;3946;48.958;8.284;2023-07-31T04:37:51;100335.44;;;16.32;86.39
163;BME280;3946;48.958;8.284;2023-07-31T04:40:37;100325.81;;;16.42;86.01
163;BME280;3946;48.958;8.284;2023-07-31T04:43:22;100329.81;;;16.36;86.23
163;BME280;3946;48.958;8.284;2023-07-31T04:46:09;100331.19;;;16.40;85.55
163;BME280;3946;48.958;8.284;2023-07-31T04:48:54;100316.63;;;16.48;85.21
163;BME280;3946;48.958;8.284;2023-07-31T04:51:39;100329.28;;;16.52;85.13
163;BME280;3946;48.958;8.284;2023-07-31T04:54:25;100325.72;;;16.53;84.87
163;BME280;3946;48.958;8.284;2023-07-31T04:57:10;100321.44;;;16.52;85.24
163;BME280;3946;48.958;8.284;2023-07-31T04:59:55;100326.56;;;16.63;84.85
163;BME280;3946;48.958;8.284;2023-07-31T05:02:42;100299.25;;;16.56;83.94
163;BME280;3946;48.958;8.284;2023-07-31T05:05:27;100321.06;;;16.76;83.97
163;BME280;3946;48.958;8.284;2023-07-31T05:08:13;100318.59;;;16.84;84.07
163;BME280;3946;48.958;8.284;2023-07-31T05:10:58;100310.19;;;17.00;83.43
163;BME280;3946;48.958;8.284;2023-07-31T05:13:43;100321.69;;;17.26;82.27
163;BME280;3946;48.958;8.284;2023-07-31T05:16:28;100315.31;;;17.48;81.78
163;BME280;3946;48.958;8.284;2023-07-31T05:19:15;100306.56;;;17.57;81.02
163;BME280;3946;48.958;8.284;2023-07-31T05:22:00;100308.66;;;17.54;81.52
163;BME280;3946;48.958;8.284;2023-07-31T05:24:46;100309.69;;;17.80;80.36
163;BME280;3946;48.958;8.284;2023-07-31T05:27:31;100312.19;;;17.72;80.37
163;BME280;3946;48.958;8.284;2023-07-31T05:30:16;100311.97;;;17.65;80.86
163;BME280;3946;48.958;8.284;2023-07-31T05:33:02;100312.78;;;17.66;81.01
163;BME280;3946;48.958;8.284;2023-07-31T05:35:49;100311.00;;;17.66;81.30
163;BME280;3946;48.958;8.284;2023-07-31T05:38:34;100305.31;;;17.71;81.96
163;BME280;3946;48.958;8.284;2023-07-31T05:41:19;100303.56;;;17.89;79.93
163;BME280;3946;48.958;8.284;2023-07-31T05:44:05;100309.41;;;17.83;81.34
163;BME280;3946;48.958;8.284;2023-07-31T05:46:50;100304.69;;;17.87;80.81
163;BME280;3946;48.958;8.284;2023-07-31T05:49:35;100305.88;;;18.02;79.81
163;BME280;3946;48.958;8.284;2023-07-31T05:52:22;100301.25;;;18.13;79.15
163;BME280;3946;48.958;8.284;2023-07-31T05:55:08;100301.41;;;18.02;79.88
163;BME280;3946;48.958;8.284;2023-07-31T05:57:54;100299.47;;;18.04;79.41
163;BME280;3946;48.958;8.284;2023-07-31T06:00:40;100299.44;;;18.14;78.96
163;BME280;3946;48.958;8.284;2023-07-31T06:03:26;100296.44;;;18.09;78.38
163;BME280;3946;48.958;8.284;2023-07-31T06:06:11;100289.69;;;18.24;79.80
163;BME280;3946;48.958;8.284;2023-07-31T06:08:58;100284.41;;;18.34;77.85
163;BME280;3946;48.958;8.284;2023-07-31T06:11:43;100274.88;;;18.68;77.21
163;BME280;3946;48.958;8.284;2023-07-31T06:14:29;100287.50;;;18.65;77.30
163;BME280;3946;48.958;8.284;2023-07-31T06:17:14;100301.22;;;18.59;76.46
163;BME280;3946;48.958;8.284;2023-07-31T06:19:59;100294.00;;;18.78;76.52
163;BME280;3946;48.958;8.284;2023-07-31T06:22:45;100296.34;;;18.64;76.91
163;BME280;3946;48.958;8.284;2023-07-31T06:25:31;100297.06;;;18.92;76.04
163;BME280;3946;48.958;8.284;2023-07-31T06:28:17;100294.81;;;18.97;75.97
163;BME280;3946;48.958;8.284;2023-07-31T06:31:02;100295.38;;;19.08;75.45
163;BME280;3946;48.958;8.284;2023-07-31T06:33:47;100290.78;;;19.36;75.24
163;BME280;3946;48.958;8.284;2023-07-31T06:36:33;100282.72;;;19.30;74.53
163;BME280;3946;48.958;8.284;2023-07-31T06:39:18;100284.63;;;19.45;74.88
163;BME280;3946;48.958;8.284;2023-07-31T06:42:05;100289.84;;;19.63;75.21
163;BME280;3946;48.958;8.284;2023-07-31T06:44:51;100291.81;;;19.69;75.22
163;BME280;3946;48.958;8.284;2023-07-31T06:47:36;100271.47;;;19.45;73.10
163;BME280;3946;48.958;8.284;2023-07-31T06:50:21;100289.00;;;19.37;74.49
163;BME280;3946;48.958;8.284;2023-07-31T06:53:06;100273.91;;;19.13;74.35
163;BME280;3946;48.958;8.284;2023-07-31T06:55:52;100296.66;;;19.04;75.46
163;BME280;3946;48.958;8.284;2023-07-31T06:58:39;100282.50;;;18.97;75.33
163;BME280;3946;48.958;8.284;2023-07-31T07:01:24;100287.06;;;19.13;75.13
163;BME280;3946;48.958;8.284;2023-07-31T07:04:09;100289.91;;;19.02;75.94
163;BME280;3946;48.958;8.284;2023-07-31T07:06:54;100287.28;;;19.02;76.50
163;BME280;3946;48.958;8.284;2023-07-31T07:09:40;100282.09;;;19.10;75.37
163;BME280;3946;48.958;8.284;2023-07-31T07:12:25;100271.72;;;19.34;74.57
163;BME280;3946;48.958;8.284;2023-07-31T07:15:12;100271.41;;;19.37;74.27
163;BME280;3946;48.958;8.284;2023-07-31T07:17:57;100275.69;;;19.38;74.91
163;BME280;3946;48.958;8.284;2023-07-31T07:20:46;100273.84;;;19.56;75.16
163;BME280;3946;48.958;8.284;2023-07-31T07:23:32;100267.44;;;19.93;73.31
163;BME280;3946;48.958;8.284;2023-07-31T07:26:17;100253.16;;;20.20;72.22
163;BME280;3946;48.958;8.284;2023-07-31T07:29:02;100247.44;;;20.24;71.13
163;BME280;3946;48.958;8.284;2023-07-31T07:31:49;100256.97;;;20.34;71.29
163;BME280;3946;48.958;8.284;2023-07-31T07:34:35;100257.97;;;20.24;72.37
163;BME280;3946;48.958;8.284;2023-07-31T07:37:20;100249.63;;;20.45;71.22
163;BME280;3946;48.958;8.284;2023-07-31T07:40:07;100241.84;;;20.27;71.47
163;BME280;3946;48.958;8.284;2023-07-31T07:42:52;100240.56;;;20.48;71.16
163;BME280;3946;48.958;8.284;2023-07-31T07:45:38;100216.53;;;20.51;69.45
163;BME280;3946;48.958;8.284;2023-07-31T07:48:24;100234.97;;;20.43;71.42
163;BME280;3946;48.958;8.284;2023-07-31T07:51:10;100227.56;;;20.46;69.82
163;BME280;3946;48.958;8.284;2023-07-31T07:53:55;100229.72;;;20.59;70.88
163;BME280;3946;48.958;8.284;2023-07-31T07:56:41;100228.66;;;20.19;70.60
163;BME280;3946;48.958;8.284;2023-07-31T07:59:26;100237.78;;;20.41;70.02
163;BME280;3946;48.958;8.284;2023-07-31T08:02:11;100246.50;;;20.74;71.21
163;BME280;3946;48.958;8.284;2023-07-31T08:04:58;100236.94;;;20.81;69.08
163;BME280;3946;48.958;8.284;2023-07-31T08:07:43;100251.44;;;20.61;70.67
163;BME280;3946;48.958;8.284;2023-07-31T08:10:29;100232.34;;;20.75;68.80
163;BME280;3946;48.958;8.284;2023-07-31T08:13:14;100230.69;;;20.74;68.70
163;BME280;3946;48.958;8.284;2023-07-31T08:15:59;100228.50;;;21.02;69.42
163;BME280;3946;48.958;8.284;2023-07-31T08:18:44;100228.63;;;21.17;69.36
163;BME280;3946;48.958;8.284;2023-07-31T08:21:31;100217.06;;;21.42;67.92
163;BME280;3946;48.958;8.284;2023-07-31T08:24:16;100220.19;;;21.38;69.44
163;BME280;3946;48.958;8.284;2023-07-31T08:27:02;100208.66;;;21.39;67.82
163;BME280;3946;48.958;8.284;2023-07-31T08:29:47;100212.97;;;21.32;67.78
163;BME280;3946;48.958;8.284;2023-07-31T08:32:32;100228.63;;;21.33;68.34
163;BME280;3946;48.958;8.284;2023-07-31T08:35:18;100213.88;;;21.55;67.63
163;BME280;3946;48.958;8.284;2023-07-31T08:38:04;100201.78;;;21.60;66.56
163;BME280;3946;48.958;8.284;2023-07-31T08:40:50;100203.50;;;21.84;67.83
163;BME280;3946;48.958;8.284;2023-07-31T08:43:36;100193.50;;;21.41;66.22
163;BME280;3946;48.958;8.284;2023-07-31T08:46:23;100194.19;;;21.65;66.47
163;BME280;3946;48.958;8.284;2023-07-31T08:49:09;100169.72;;;22.48;65.29
163;BME280;3946;48.958;8.284;2023-07-31T08:51:55;100165.53;;;22.39;64.47
163;BME280;3946;48.958;8.284;2023-07-31T08:54:43;100179.91;;;22.37;65.84
163;BME280;3946;48.958;8.284;2023-07-31T08:57:28;100176.66;;;22.26;65.27
163;BME280;3946;48.958;8.284;2023-07-31T09:00:14;100170.00;;;22.16;64.70
163;BME280;3946;48.958;8.284;2023-07-31T09:03:01;100174.38;;;22.61;65.69
163;BME280;3946;48.958;8.284;2023-07-31T09:05:46;100170.84;;;22.54;65.30
163;BME280;3946;48.958;8.284;2023-07-31T09:08:31;100148.47;;;22.94;63.21
163;BME280;3946;48.958;8.284;2023-07-31T09:11:18;100136.50;;;23.27;62.49
163;BME280;3946;48.958;8.284;2023-07-31T09:14:03;100116.59;;;23.46;61.96
163;BME280;3946;48.958;8.284;2023-07-31T09:16:53;100122.88;;;23.45;62.41
163;BME280;3946;48.958;8.284;2023-07-31T09:19:38;100133.72;;;23.50;63.01
163;BME280;3946;48.958;8.284;2023-07-31T09:22:34;100107.56;;;23.05;60.98
163;BME280;3946;48.958;8.284;2023-07-31T09:25:20;100101.91;;;22.93;60.64
163;BME280;3946;48.958;8.284;2023-07-31T09:28:07;100108.75;;;22.73;61.74
163;BME280;3946;48.958;8.284;2023-07-31T09:30:52;100084.38;;;23.07;61.07
163;BME280;3946;48.958;8.284;2023-07-31T09:33:42;100073.56;;;23.37;59.12
163;BME280;3946;48.958;8.284;2023-07-31T09:36:42;100079.16;;;23.28;59.10
163;BME280;3946;48.958;8.284;2023-07-31T09:39:27;100094.50;;;23.18;59.98
163;BME280;3946;48.958;8.284;2023-07-31T09:42:12;100103.25;;;23.18;60.77
163;BME280;3946;48.958;8.284;2023-07-31T09:45:05;100078.47;;;23.19;59.81
163;BME280;3946;48.958;8.284;2023-07-31T09:47:51;100067.03;;;23.33;58.84
163;BME280;3946;48.958;8.284;2023-07-31T09:50:37;100089.00;;;23.34;59.48
163;BME280;3946;48.958;8.284;2023-07-31T09:53:27;100064.16;;;23.14;58.46
163;BME280;3946;48.958;8.284;2023-07-31T09:56:13;100086.66;;;23.10;59.70
163;BME280;3946;48.958;8.284;2023-07-31T09:58:58;100094.16;;;23.42;60.78
163;BME280;3946;48.958;8.284;2023-07-31T10:01:45;100051.69;;;23.65;58.18
163;BME280;3946;48.958;8.284;2023-07-31T10:04:31;100050.63;;;24.08;57.53
163;BME280;3946;48.958;8.284;2023-07-31T10:07:16;100047.22;;;24.15;57.73
163;BME280;3946;48.958;8.284;2023-07-31T10:10:02;100063.84;;;24.30;59.08
163;BME280;3946;48.958;8.284;2023-07-31T10:12:48;100032.38;;;24.20;57.17
163;BME280;3946;48.958;8.284;2023-07-31T10:15:33;100044.38;;;24.16;57.61
163;BME280;3946;48.958;8.284;2023-07-31T10:18:20;100049.41;;;24.32;57.77
163;BME280;3946;48.958;8.284;2023-07-31T10:21:06;100071.34;;;24.26;58.76
163;BME280;3946;48.958;8.284;2023-07-31T10:23:51;100077.91;;;24.09;59.43
163;BME280;3946;48.958;8.284;2023-07-31T10:26:36;100044.06;;;24.26;57.09
163;BME280;3946;48.958;8.284;2023-07-31T10:29:22;100068.06;;;23.96;58.52
163;BME280;3946;48.958;8.284;2023-07-31T10:32:07;100078.28;;;24.06;60.44
163;BME280;3946;48.958;8.284;2023-07-31T10:34:56;100069.97;;;23.81;59.98
163;BME280;3946;48.958;8.284;2023-07-31T10:37:42;100055.84;;;23.74;59.32
163;BME280;3946;48.958;8.284;2023-07-31T10:40:27;100081.88;;;23.34;59.86
163;BME280;3946;48.958;8.284;2023-07-31T10:43:23;100104.72;;;23.21;61.71
163;BME280;3946;48.958;8.284;2023-07-31T10:46:09;100084.97;;;23.53;60.25
163;BME280;3946;48.958;8.284;2023-07-31T10:48:59;100055.19;;;23.93;58.27
163;BME280;3946;48.958;8.284;2023-07-31T10:51:47;100086.06;;;24.29;59.98
163;BME280;3946;48.958;8.284;2023-07-31T10:54:32;100068.06;;;23.96;58.71
163;BME280;3946;48.958;8.284;2023-07-31T10:57:21;100071.25;;;23.92;59.13
163;BME280;3946;48.958;8.284;2023-07-31T11:00:20;100046.78;;;23.62;57.51
163;BME280;3946;48.958;8.284;2023-07-31T11:03:06;100074.78;;;23.56;60.31
163;BME280;3946;48.958;8.284;2023-07-31T11:05:52;100068.59;;;23.49;60.38
163;BME280;3946;48.958;8.284;2023-07-31T11:08:42;100072.31;;;23.33;60.29
163;BME280;3946;48.958;8.284;2023-07-31T11:11:29;100076.06;;;23.60;60.39
163;BME280;3946;48.958;8.284;2023-07-31T11:14:14;100069.41;;;23.86;60.04
163;BME280;3946;48.958;8.284;2023-07-31T11:17:08;100034.78;;;23.87;57.77
163;BME280;3946;48.958;8.284;2023-07-31T11:19:53;100055.38;;;23.49;60.22
163;BME280;3946;48.958;8.284;2023-07-31T11:22:38;100043.06;;;24.05;59.66
163;BME280;3946;48.958;8.284;2023-07-31T11:25:23;100062.91;;;24.44;60.84
163;BME280;3946;48.958;8.284;2023-07-31T11:28:09;100021.78;;;24.48;57.78
163;BME280;3946;48.958;8.284;2023-07-31T11:30:55;100050.88;;;23.64;60.38
163;BME280;3946;48.958;8.284;2023-07-31T11:33:42;100058.00;;;24.13;60.55
163;BME280;3946;48.958;8.284;2023-07-31T11:36:26;100031.91;;;24.10;58.58
163;BME280;3946;48.958;8.284;2023-07-31T11:39:11;100028.22;;;24.32;58.96
163;BME280;3946;48.958;8.284;2023-07-31T11:41:58;100024.31;;;24.28;58.21
163;BME280;3946;48.958;8.284;2023-07-31T11:44:43;100040.28;;;24.41;60.19
163;BME280;3946;48.958;8.284;2023-07-31T11:47:32;100021.47;;;24.02;58.93
163;BME280;3946;48.958;8.284;2023-07-31T11:50:19;100032.72;;;23.83;59.02
163;BME280;3946;48.958;8.284;2023-07-31T11:53:06;100049.31;;;23.70;61.71
163;BME280;3946;48.958;8.284;2023-07-31T11:55:52;100045.63;;;23.71;61.93
163;BME280;3946;48.958;8.284;2023-07-31T11:58:39;100000.59;;;23.86;58.93
163;BME280;3946;48.958;8.284;2023-07-31T12:01:25;100011.97;;;24.14;59.94
163;BME280;3946;48.958;8.284;2023-07-31T12:04:11;100003.56;;;24.32;59.10
163;BME280;3946;48.958;8.284;2023-07-31T12:06:57;100014.09;;;24.25;59.94
163;BME280;3946;48.958;8.284;2023-07-31T12:09:51;99997.06;;;23.79;59.32
163;BME280;3946;48.958;8.284;2023-07-31T12:12:36;100010.00;;;23.95;60.74
163;BME280;3946;48.958;8.284;2023-07-31T12:15:21;99990.13;;;24.05;59.86
163;BME280;3946;48.958;8.284;2023-07-31T12:18:07;99960.34;;;24.79;57.65
163;BME280;3946;48.958;8.284;2023-07-31T12:20:54;99963.13;;;25.52;57.17
163;BME280;3946;48.958;8.284;2023-07-31T12:23:41;99935.19;;;25.69;56.43
163;BME280;3946;48.958;8.284;2023-07-31T12:26:33;99937.41;;;25.19;55.60
163;BME280;3946;48.958;8.284;2023-07-31T12:29:18;99969.91;;;24.73;57.89
163;BME280;3946;48.958;8.284;2023-07-31T12:32:03;99961.13;;;25.47;57.91
163;BME280;3946;48.958;8.284;2023-07-31T12:34:49;99957.03;;;25.38;57.46
163;BME280;3946;48.958;8.284;2023-07-31T12:37:34;99956.91;;;24.79;58.28
163;BME280;3946;48.958;8.284;2023-07-31T12:40:20;99978.91;;;24.79;59.50
163;BME280;3946;48.958;8.284;2023-07-31T12:43:05;99982.19;;;24.40;59.64
163;BME280;3946;48.958;8.284;2023-07-31T12:45:51;99944.00;;;24.69;57.46
163;BME280;3946;48.958;8.284;2023-07-31T12:48:36;99958.53;;;24.86;58.91
163;BME280;3946;48.958;8.284;2023-07-31T12:51:21;99942.72;;;24.99;58.22
163;BME280;3946;48.958;8.284;2023-07-31T12:54:06;99945.19;;;25.34;58.08
163;BME280;3946;48.958;8.284;2023-07-31T12:56:52;99940.44;;;24.42;58.61
163;BME280;3946;48.958;8.284;2023-07-31T12:59:37;99957.75;;;24.38;59.96
163;BME280;3946;48.958;8.284;2023-07-31T13:02:22;99950.91;;;24.22;59.68
163;BME280;3946;48.958;8.284;2023-07-31T13:05:07;99932.44;;;24.29;58.74
163;BME280;3946;48.958;8.284;2023-07-31T13:07:52;99947.19;;;24.10;60.89
163;BME280;3946;48.958;8.284;2023-07-31T13:10:38;99942.91;;;24.09;60.42
163;BME280;3946;48.958;8.284;2023-07-31T13:13:24;99930.88;;;24.06;60.06
163;BME280;3946;48.958;8.284;2023-07-31T13:16:09;99923.97;;;24.12;59.46
163;BME280;3946;48.958;8.284;2023-07-31T13:18:54;99930.88;;;24.06;60.60
163;BME280;3946;48.958;8.284;2023-07-31T13:21:39;99943.34;;;24.13;61.08
163;BME280;3946;48.958;8.284;2023-07-31T13:24:24;99931.69;;;24.07;60.79
163;BME280;3946;48.958;8.284;2023-07-31T13:27:09;99932.38;;;23.88;61.63
163;BME280;3946;48.958;8.284;2023-07-31T13:29:55;99912.31;;;23.72;60.19
163;BME280;3946;48.958;8.284;2023-07-31T13:32:40;99929.84;;;23.73;61.33
163;BME280;3946;48.958;8.284;2023-07-31T13:35:25;99914.44;;;24.18;60.65
163;BME280;3946;48.958;8.284;2023-07-31T13:38:10;99930.53;;;24.23;61.52
163;BME280;3946;48.958;8.284;2023-07-31T13:40:55;99912.63;;;24.72;59.67
163;BME280;3946;48.958;8.284;2023-07-31T13:43:40;99896.38;;;25.02;59.07
163;BME280;3946;48.958;8.284;2023-07-31T13:46:27;99881.25;;;24.89;58.11
163;BME280;3946;48.958;8.284;2023-07-31T13:49:12;99887.16;;;24.65;58.81
163;BME280;3946;48.958;8.284;2023-07-31T13:51:57;99886.56;;;24.83;58.70
163;BME280;3946;48.958;8.284;2023-07-31T13:54:42;99909.91;;;24.46;60.96
163;BME280;3946;48.958;8.284;2023-07-31T13:57:27;99901.59;;;24.62;59.98
163;BME280;3946;48.958;8.284;2023-07-31T14:00:13;99876.00;;;24.28;59.77
163;BME280;3946;48.958;8.284;2023-07-31T14:02:59;99914.59;;;24.10;61.53
163;BME280;3946;48.958;8.284;2023-07-31T14:05:44;99882.84;;;24.57;59.15
163;BME280;3946;48.958;8.284;2023-07-31T14:08:30;99904.66;;;24.59;60.74
163;BME280;3946;48.958;8.284;2023-07-31T14:11:15;99890.94;;;24.42;61.36
163;BME280;3946;48.958;8.284;2023-07-31T14:14:00;99913.13;;;24.00;61.73
163;BME280;3946;48.958;8.284;2023-07-31T14:16:46;99917.75;;;23.92;62.53
163;BME280;3946;48.958;8.284;2023-07-31T14:19:33;99911.84;;;23.90;61.33
163;BME280;3946;48.958;8.284;2023-07-31T14:22:26;99913.78;;;24.09;61.52
163;BME280;3946;48.958;8.284;2023-07-31T14:25:12;99915.59;;;24.08;61.51
163;BME280;3946;48.958;8.284;2023-07-31T14:27:57;99906.53;;;23.90;61.38
163;BME280;3946;48.958;8.284;2023-07-31T14:30:42;99901.56;;;23.73;61.70
163;BME280;3946;48.958;8.284;2023-07-31T14:33:27;99899.41;;;24.25;62.10
163;BME280;3946;48.958;8.284;2023-07-31T14:36:13;99869.16;;;24.54;60.13
163;BME280;3946;48.958;8.284;2023-07-31T14:38:58;99882.84;;;24.57;61.75
163;BME280;3946;48.958;8.284;2023-07-31T14:41:43;99860.31;;;25.07;60.36
163;BME280;3946;48.958;8.284;2023-07-31T14:44:29;99859.72;;;25.12;60.80
163;BME280;3946;48.958;8.284;2023-07-31T14:47:14;99853.53;;;24.85;59.80
163;BME280;3946;48.958;8.284;2023-07-31T14:49:59;99857.16;;;24.71;60.38
163;BME280;3946;48.958;8.284;2023-07-31T14:52:46;99872.22;;;24.51;61.61
163;BME280;3946;48.958;8.284;2023-07-31T14:55:31;99847.59;;;24.70;60.11
163;BME280;3946;48.958;8.284;2023-07-31T14:58:16;99825.59;;;24.89;59.81
163;BME280;3946;48.958;8.284;2023-07-31T15:01:01;99805.44;;;25.15;59.27
163;BME280;3946;48.958;8.284;2023-07-31T15:03:46;99786.25;;;24.93;58.63
163;BME280;3946;48.958;8.284;2023-07-31T15:06:31;99800.91;;;25.41;59.76